Spearfish, SD

8:35 PM MDT on July 24, 2016 (GMT -0600)
Black Hills-Ice | | Change Station

Elev 3898 ft 44.48 °N, 103.78 °W | Updated 40 minutes ago

Clear
Clear
75 °F
Feels Like 75 °F
N
10
Wind Variable Wind from ESE

Today
High -- | Low -- °F
--% Chance of Precip.
Yesterday
High -- | Low -- °F
Precip. -- in
Pressure 30.12 in
Visibility 10.0 miles
Clouds Clear
Dew Point 48 °F
Humidity 38%
Rainfall 0.46 in
Snow Depth Not available.
5:33 AM 8:28 PM
Waning Gibbous, 71% visible
METAR KSPF 250155Z AUTO 11009KT 10SM CLR 24/09 A3012 RMK AO2
Pressure 30.12 in
Visibility 10.0 miles
Clouds Clear
Dew Point 48 °F
Humidity 38%
Rainfall 0.46 in
Snow Depth Not available.
5:33 AM 8:28 PM
Waning Gibbous, 71% visible
METAR KSPF 250155Z AUTO 11009KT 10SM CLR 24/09 A3012 RMK AO2

10-Day Weather Forecast

Almanac

Astronomy

Jul. 24, 2016 Rise Set
Actual Time
Civil Twilight
Nautical Twilight
Astronomical Twilight
Moon
Length of Visible Light
Length of Day
Tomorrow will be .
, % of the Moon is Illuminated

Today's Extremes

State Highs State Lows

Community

WunderPhotos

Upload Photos

1,927,243 photos uploaded!

WunderBlog® & News

Nearby

Air Quality

  Air Quality AQ Index Pollutant
Not available.

Snow Depth

Station Depth Elevation

Earthquake Activity

City Distance Mag. Time & Date
Minimum magnitude displayed is 2.5.

Coastal Water Temperatures

Place Temperature

Stations

Nearby Weather Stations

Station Location Temp. Windchill Dew Point Humidity Wind Precip. Elev Updated Type
                   

Watches & Warnings

There are currently no watches in effect.